EZY81TN EGKK-LEMI
Flight info
| Callsign | EZY81TN |
|---|---|
| Flight time | N/A |
| Altitude | 35000 |
| Route | SFD Y47 BENBO UY47 DRAKE L151 SITET UN859 SOPIL DCT BALAN DCT LMG DCT PIMQO DCT AGN DCT ANETO DCT POSSY DCT XIMPE DCT RIMES N860 VLC DCT ALT |
| Aircraft | A320/M-SDE2E3FGHIJ1RWXYZ/LB1 |
Departure
| Time | N/A |
|---|---|
| Airport | London Gatwick Airport (EGKK) |
Arrival
| Time | 2026-05-04 14:54 |
|---|---|
| Airport | Region of Murcia International Airport (LEMI) |
| Time | Latitude | Longitude | Altitude | Speed | Heading |
|---|---|---|---|---|---|
| 2026-05-04 14:21 | 39.92895 | -0.31132 | 36912 ft | 388 kts | 202° |
| 2026-05-04 14:21 | 39.90309 | -0.32142 | 36911 ft | 388 kts | 202° |
| 2026-05-04 14:21 | 39.85141 | -0.34155 | 36909 ft | 388 kts | 202° |
| 2026-05-04 14:22 | 39.79963 | -0.36155 | 36922 ft | 388 kts | 202° |
| 2026-05-04 14:22 | 39.74787 | -0.38161 | 36903 ft | 388 kts | 202° |
| 2026-05-04 14:23 | 39.67031 | -0.41184 | 36912 ft | 388 kts | 202° |
| 2026-05-04 14:24 | 39.61851 | -0.43183 | 36910 ft | 388 kts | 202° |
| 2026-05-04 14:24 | 39.56672 | -0.45186 | 36839 ft | 389 kts | 202° |
| 2026-05-04 14:24 | 39.54080 | -0.46186 | 36574 ft | 388 kts | 202° |
| 2026-05-04 14:25 | 39.51491 | -0.47180 | 36313 ft | 387 kts | 202° |
| 2026-05-04 14:25 | 39.46229 | -0.48491 | 35373 ft | 390 kts | 190° |
| 2026-05-04 14:25 | 39.43529 | -0.48687 | 34837 ft | 388 kts | 190° |
| 2026-05-04 14:26 | 39.40837 | -0.48873 | 34299 ft | 387 kts | 190° |
| 2026-05-04 14:26 | 39.38157 | -0.49057 | 33730 ft | 385 kts | 190° |
| 2026-05-04 14:26 | 39.35486 | -0.49245 | 33160 ft | 383 kts | 190° |
| 2026-05-04 14:26 | 39.32836 | -0.49435 | 32640 ft | 380 kts | 190° |
| 2026-05-04 14:27 | 39.30208 | -0.49624 | 32105 ft | 377 kts | 190° |
| 2026-05-04 14:27 | 39.27597 | -0.49812 | 31588 ft | 374 kts | 190° |
| 2026-05-04 14:27 | 39.25002 | -0.50000 | 31074 ft | 372 kts | 190° |
| 2026-05-04 14:27 | 39.22425 | -0.50186 | 30573 ft | 370 kts | 191° |
| 2026-05-04 14:28 | 39.19860 | -0.50373 | 30077 ft | 368 kts | 191° |
| 2026-05-04 14:28 | 39.17311 | -0.50557 | 29542 ft | 365 kts | 191° |
| 2026-05-04 14:28 | 39.14788 | -0.50738 | 29061 ft | 361 kts | 191° |
| 2026-05-04 14:28 | 39.12295 | -0.50916 | 28612 ft | 356 kts | 191° |
| 2026-05-04 14:29 | 39.07405 | -0.51261 | 27722 ft | 348 kts | 191° |
| 2026-05-04 14:29 | 39.02631 | -0.51722 | 26565 ft | 339 kts | 197° |
| 2026-05-04 14:30 | 39.00352 | -0.52287 | 25693 ft | 337 kts | 198° |
| 2026-05-04 14:30 | 38.98030 | -0.52895 | 24818 ft | 335 kts | 198° |
| 2026-05-04 14:30 | 38.93482 | -0.54124 | 23116 ft | 332 kts | 198° |
| 2026-05-04 14:31 | 38.91255 | -0.54727 | 22215 ft | 330 kts | 198° |
| 2026-05-04 14:31 | 38.86921 | -0.55868 | 21364 ft | 304 kts | 198° |
| 2026-05-04 14:32 | 38.82877 | -0.56929 | 20641 ft | 294 kts | 198° |
| 2026-05-04 14:32 | 38.80882 | -0.57461 | 20280 ft | 292 kts | 198° |
| 2026-05-04 14:32 | 38.78904 | -0.57989 | 19923 ft | 290 kts | 198° |
| 2026-05-04 14:32 | 38.76937 | -0.58509 | 19564 ft | 288 kts | 198° |
| 2026-05-04 14:33 | 38.74981 | -0.59021 | 19215 ft | 286 kts | 198° |
| 2026-05-04 14:33 | 38.73032 | -0.59531 | 18866 ft | 286 kts | 198° |
| 2026-05-04 14:33 | 38.71086 | -0.60040 | 18521 ft | 285 kts | 198° |
| 2026-05-04 14:33 | 38.69142 | -0.60551 | 18154 ft | 285 kts | 198° |
| 2026-05-04 14:34 | 38.67200 | -0.61058 | 17774 ft | 284 kts | 198° |
| 2026-05-04 14:34 | 38.65268 | -0.61566 | 17427 ft | 283 kts | 198° |
| 2026-05-04 14:34 | 38.63348 | -0.62067 | 17088 ft | 281 kts | 198° |
| 2026-05-04 14:34 | 38.61434 | -0.62567 | 16749 ft | 280 kts | 198° |
| 2026-05-04 14:35 | 38.59527 | -0.63065 | 16413 ft | 279 kts | 198° |
| 2026-05-04 14:35 | 38.57628 | -0.63561 | 16079 ft | 278 kts | 197° |
| 2026-05-04 14:35 | 38.55735 | -0.64057 | 15740 ft | 277 kts | 197° |
| 2026-05-04 14:35 | 38.53848 | -0.64551 | 15412 ft | 276 kts | 197° |
| 2026-05-04 14:36 | 38.51984 | -0.65040 | 15094 ft | 273 kts | 198° |
| 2026-05-04 14:36 | 38.50083 | -0.65543 | 14935 ft | 286 kts | 197° |
| 2026-05-04 14:36 | 38.48118 | -0.66060 | 14934 ft | 291 kts | 197° |
| 2026-05-04 14:36 | 38.46130 | -0.66578 | 14939 ft | 292 kts | 197° |
| 2026-05-04 14:37 | 38.44134 | -0.67100 | 14944 ft | 293 kts | 197° |
| 2026-05-04 14:37 | 38.42139 | -0.67622 | 14939 ft | 293 kts | 197° |
| 2026-05-04 14:37 | 38.40144 | -0.68139 | 14944 ft | 293 kts | 197° |
| 2026-05-04 14:37 | 38.38148 | -0.68651 | 14944 ft | 293 kts | 197° |
| 2026-05-04 14:38 | 38.36151 | -0.69163 | 14945 ft | 293 kts | 197° |
| 2026-05-04 14:38 | 38.34155 | -0.69678 | 14945 ft | 293 kts | 197° |
| 2026-05-04 14:38 | 38.32157 | -0.70191 | 14943 ft | 293 kts | 197° |
| 2026-05-04 14:38 | 38.30162 | -0.70706 | 14942 ft | 292 kts | 197° |
| 2026-05-04 14:39 | 38.28171 | -0.71223 | 14944 ft | 292 kts | 197° |
| 2026-05-04 14:39 | 38.26177 | -0.71740 | 14944 ft | 292 kts | 197° |
| 2026-05-04 14:39 | 38.24191 | -0.72251 | 14943 ft | 291 kts | 197° |
| 2026-05-04 14:40 | 38.20265 | -0.73266 | 14938 ft | 290 kts | 197° |
| 2026-05-04 14:40 | 38.18291 | -0.73776 | 14932 ft | 289 kts | 197° |
| 2026-05-04 14:40 | 38.16288 | -0.74294 | 14552 ft | 291 kts | 197° |
| 2026-05-04 14:40 | 38.14300 | -0.74809 | 14176 ft | 291 kts | 197° |
| 2026-05-04 14:41 | 38.12294 | -0.75169 | 13890 ft | 295 kts | 184° |
| 2026-05-04 14:41 | 38.10273 | -0.74563 | 13579 ft | 305 kts | 164° |
| 2026-05-04 14:41 | 38.06403 | -0.72314 | 12542 ft | 306 kts | 161° |
| 2026-05-04 14:42 | 38.02949 | -0.69165 | 11165 ft | 320 kts | 126° |
| 2026-05-04 14:42 | 38.02133 | -0.66528 | 10514 ft | 327 kts | 101° |
| 2026-05-04 14:42 | 38.02195 | -0.63662 | 9933 ft | 326 kts | 77° |
| 2026-05-04 14:43 | 38.03031 | -0.61044 | 9375 ft | 318 kts | 55° |
| 2026-05-04 14:43 | 38.04480 | -0.59003 | 8770 ft | 309 kts | 33° |
| 2026-05-04 14:43 | 38.06309 | -0.57777 | 8571 ft | 289 kts | 14° |
| 2026-05-04 14:43 | 38.08225 | -0.57342 | 8442 ft | 272 kts | 356° |
| 2026-05-04 14:44 | 38.10046 | -0.57626 | 8318 ft | 262 kts | 339° |
| 2026-05-04 14:44 | 38.11744 | -0.58614 | 8192 ft | 272 kts | 320° |
| 2026-05-04 14:44 | 38.13035 | -0.60324 | 8068 ft | 267 kts | 298° |
| 2026-05-04 14:44 | 38.13662 | -0.62507 | 7943 ft | 263 kts | 275° |
| 2026-05-04 14:45 | 38.13543 | -0.64764 | 7822 ft | 261 kts | 253° |
| 2026-05-04 14:45 | 38.12775 | -0.66857 | 7695 ft | 263 kts | 242° |
| 2026-05-04 14:45 | 38.11887 | -0.68888 | 7567 ft | 263 kts | 242° |
| 2026-05-04 14:45 | 38.10997 | -0.70919 | 7440 ft | 263 kts | 242° |
| 2026-05-04 14:46 | 38.10109 | -0.72947 | 7321 ft | 263 kts | 242° |
| 2026-05-04 14:46 | 38.09222 | -0.74977 | 7184 ft | 262 kts | 242° |
| 2026-05-04 14:46 | 38.08192 | -0.76858 | 6887 ft | 259 kts | 229° |
| 2026-05-04 14:46 | 38.06917 | -0.78481 | 6489 ft | 260 kts | 227° |
| 2026-05-04 14:47 | 38.05630 | -0.80099 | 6049 ft | 261 kts | 227° |
| 2026-05-04 14:47 | 38.04340 | -0.81725 | 5624 ft | 262 kts | 226° |
| 2026-05-04 14:47 | 38.03040 | -0.83362 | 5394 ft | 254 kts | 227° |
| 2026-05-04 14:47 | 38.01834 | -0.84880 | 5327 ft | 242 kts | 227° |
| 2026-05-04 14:48 | 38.00667 | -0.86347 | 5240 ft | 231 kts | 227° |
| 2026-05-04 14:48 | 37.99531 | -0.87741 | 5155 ft | 223 kts | 225° |
| 2026-05-04 14:48 | 37.98434 | -0.89077 | 5046 ft | 214 kts | 226° |
| 2026-05-04 14:48 | 37.97408 | -0.90386 | 4978 ft | 205 kts | 228° |
| 2026-05-04 14:49 | 37.96414 | -0.91674 | 4795 ft | 205 kts | 227° |
| 2026-05-04 14:49 | 37.95415 | -0.92970 | 4525 ft | 206 kts | 227° |
| 2026-05-04 14:49 | 37.94414 | -0.94265 | 4264 ft | 207 kts | 227° |
| 2026-05-04 14:49 | 37.93401 | -0.95577 | 4011 ft | 210 kts | 227° |
| 2026-05-04 14:50 | 37.92389 | -0.96886 | 3736 ft | 204 kts | 227° |
| 2026-05-04 14:50 | 37.91408 | -0.98154 | 3487 ft | 200 kts | 226° |
| 2026-05-04 14:50 | 37.90458 | -0.99382 | 3221 ft | 189 kts | 226° |
| 2026-05-04 14:50 | 37.89572 | -1.00528 | 2968 ft | 176 kts | 226° |
| 2026-05-04 14:51 | 37.88746 | -1.01596 | 2744 ft | 165 kts | 225° |
| 2026-05-04 14:51 | 37.87972 | -1.02595 | 2541 ft | 153 kts | 225° |
| 2026-05-04 14:51 | 37.87250 | -1.03527 | 2376 ft | 147 kts | 224° |
| 2026-05-04 14:51 | 37.86553 | -1.04428 | 2165 ft | 142 kts | 225° |
| 2026-05-04 14:52 | 37.85855 | -1.05328 | 1980 ft | 143 kts | 225° |
| 2026-05-04 14:52 | 37.85173 | -1.06209 | 1798 ft | 140 kts | 223° |
| 2026-05-04 14:52 | 37.84488 | -1.07092 | 1610 ft | 140 kts | 223° |
| 2026-05-04 14:52 | 37.83807 | -1.07970 | 1408 ft | 139 kts | 226° |
| 2026-05-04 14:53 | 37.83134 | -1.08837 | 1242 ft | 138 kts | 224° |
| 2026-05-04 14:53 | 37.82466 | -1.09696 | 1051 ft | 137 kts | 225° |
| 2026-05-04 14:53 | 37.81795 | -1.10562 | 826 ft | 138 kts | 224° |
| 2026-05-04 14:53 | 37.81132 | -1.11420 | 660 ft | 135 kts | 225° |
| 2026-05-04 14:54 | 37.80565 | -1.12148 | 648 ft | 91 kts | 226° |
| 2026-05-04 14:54 | 37.80223 | -1.12587 | 645 ft | 58 kts | 225° |
| 2026-05-04 14:54 | 37.80002 | -1.12875 | 645 ft | 32 kts | 228° |
| 2026-05-04 14:54 | 37.79909 | -1.13104 | 648 ft | 27 kts | 255° |
| 2026-05-04 14:55 | 37.79917 | -1.13247 | 651 ft | 17 kts | 332° |
| 2026-05-04 14:55 | 37.80008 | -1.13173 | 648 ft | 16 kts | 44° |
| 2026-05-04 14:55 | 37.80089 | -1.13084 | 648 ft | 15 kts | 19° |
| 2026-05-04 14:55 | 37.80169 | -1.13146 | 647 ft | 13 kts | 319° |
| 2026-05-04 14:56 | 37.80241 | -1.13129 | 647 ft | 11 kts | 46° |
| 2026-05-04 14:56 | 37.80290 | -1.13063 | 647 ft | 10 kts | 45° |
| 2026-05-04 14:56 | 37.80349 | -1.12993 | 647 ft | 7 kts | 26° |
| 2026-05-04 14:56 | 37.80383 | -1.13020 | 647 ft | 5 kts | 316° |
| 2026-05-04 14:57 | 37.80405 | -1.13048 | 647 ft | 2 kts | 315° |
| 2026-05-04 14:57 | 37.80406 | -1.13050 | 647 ft | 0 kts | 315° |